Time,TemperatureF,DewpointF,PressureIn,WindDirection,WindDirectionDegrees,WindSpeedMPH,WindSpeedGustMPH,Humidity,HourlyPrecipIn,Conditions,Clouds,dailyrainin,SoftwareType,DateUTC
2013-06-25 00:00:00,56.4,55.9,29.70,WSW,253,0.0,0.0,98,0.00,CLR,,0.00,WeatherDisplay:10.37,2013-06-25 07:00:00,
2013-06-25 00:05:00,56.3,55.5,29.69,WSW,253,0.0,0.0,97,0.00,CLR,,0.00,WeatherDisplay:10.37,2013-06-25 07:05:00,
2013-06-25 00:10:00,56.2,55.3,29.70,WSW,253,0.0,0.0,97,0.00,CLR,,0.00,WeatherDisplay:10.37,2013-06-25 07:10:00,
2013-06-25 00:20:00,55.6,54.8,29.69,WSW,253,0.0,0.0,97,0.00,CLR,,0.00,WeatherDisplay:10.37,2013-06-25 07:20:00,
2013-06-25 00:30:00,55.5,54.9,29.70,WSW,253,0.0,0.0,98,0.00,CLR,,0.00,WeatherDisplay:10.37,2013-06-25 07:30:00,
2013-06-25 00:40:00,55.3,54.7,29.69,WSW,253,0.0,0.0,98,0.00,CLR,,0.00,WeatherDisplay:10.37,2013-06-25 07:40:00,
2013-06-25 00:50:00,55.4,54.8,29.69,WSW,253,0.0,0.0,98,0.00,CLR,,0.00,WeatherDisplay:10.37,2013-06-25 07:50:00,
2013-06-25 01:00:00,55.5,54.9,29.69,WSW,253,0.0,0.0,98,0.00,CLR,,0.00,WeatherDisplay:10.37,2013-06-25 08:00:00,
2013-06-25 01:05:00,55.5,54.9,29.69,WSW,253,0.0,0.0,98,0.00,CLR,,0.00,WeatherDisplay:10.37,2013-06-25 08:05:00,
2013-06-25 01:10:00,55.5,54.9,29.69,WSW,253,0.0,0.0,98,0.00,CLR,,0.00,WeatherDisplay:10.37,2013-06-25 08:10:00,
2013-06-25 01:20:00,55.4,54.8,29.69,WSW,253,0.0,0.0,98,0.00,CLR,,0.00,WeatherDisplay:10.37,2013-06-25 08:20:00,
2013-06-25 01:30:00,55.4,55.1,29.69,WSW,253,0.0,0.0,99,0.00,CLR,,0.00,WeatherDisplay:10.37,2013-06-25 08:30:00,
2013-06-25 01:40:00,55.3,55.0,29.68,WSW,253,0.0,0.0,99,0.00,CLR,,0.00,WeatherDisplay:10.37,2013-06-25 08:40:00,
2013-06-25 01:50:00,55.1,54.5,29.68,WSW,253,0.0,0.0,98,0.00,CLR,,0.00,WeatherDisplay:10.37,2013-06-25 08:50:00,
2013-06-25 02:00:00,55.0,54.7,29.69,WSW,253,0.0,0.0,99,0.00,CLR,,0.00,WeatherDisplay:10.37,2013-06-25 09:00:00,
2013-06-25 02:05:00,54.9,54.7,29.69,WSW,253,0.0,0.0,99,0.00,CLR,,0.00,WeatherDisplay:10.37,2013-06-25 09:05:00,
2013-06-25 02:10:00,55.0,54.7,29.68,WSW,253,0.0,0.0,99,0.00,CLR,,0.00,WeatherDisplay:10.37,2013-06-25 09:10:00,
2013-06-25 02:20:00,55.1,54.8,29.68,WSW,253,0.0,0.0,99,0.00,CLR,,0.00,WeatherDisplay:10.37,2013-06-25 09:20:00,
2013-06-25 02:30:00,55.2,54.9,29.68,WSW,253,0.0,0.0,99,0.00,CLR,,0.00,WeatherDisplay:10.37,2013-06-25 09:30:00,
2013-06-25 02:40:00,55.1,54.8,29.68,WSW,253,0.0,0.0,99,0.00,CLR,,0.00,WeatherDisplay:10.37,2013-06-25 09:40:00,
2013-06-25 02:50:00,55.1,54.8,29.69,WSW,253,0.0,0.0,99,0.00,CLR,,0.00,WeatherDisplay:10.37,2013-06-25 09:50:00,
2013-06-25 03:00:00,55.1,54.8,29.69,WSW,253,0.0,0.0,99,0.00,CLR,,0.00,WeatherDisplay:10.37,2013-06-25 10:00:00,
2013-06-25 03:05:00,55.0,54.7,29.69,WSW,253,0.0,0.0,99,0.00,CLR,,0.00,WeatherDisplay:10.37,2013-06-25 10:05:00,
2013-06-25 03:10:00,55.0,54.7,29.69,WSW,253,0.0,0.0,99,0.00,CLR,,0.00,WeatherDisplay:10.37,2013-06-25 10:10:00,
2013-06-25 03:20:00,55.0,54.7,29.69,WSW,253,0.0,0.0,99,0.00,CLR,,0.00,WeatherDisplay:10.37,2013-06-25 10:20:00,
2013-06-25 03:30:00,55.1,54.8,29.69,WSW,253,0.0,0.0,99,0.00,CLR,,0.00,WeatherDisplay:10.37,2013-06-25 10:30:00,
2013-06-25 03:40:00,55.2,54.9,29.70,WSW,253,0.0,0.0,99,0.00,CLR,,0.00,WeatherDisplay:10.37,2013-06-25 10:40:00,
2013-06-25 03:50:00,55.2,54.9,29.70,WSW,253,0.0,0.0,99,0.01,RA,,0.02,WeatherDisplay:10.37,2013-06-25 10:50:00,
2013-06-25 04:00:00,55.4,55.1,29.70,SE,135,0.0,0.0,99,0.01,RA,,0.04,WeatherDisplay:10.37,2013-06-25 11:00:00,
2013-06-25 04:05:00,55.5,55.2,29.70,SE,141,0.0,0.0,99,0.01,RA,,0.05,WeatherDisplay:10.37,2013-06-25 11:05:00,
2013-06-25 04:10:00,55.7,55.4,29.70,SE,140,0.0,0.0,99,0.01,RA,,0.06,WeatherDisplay:10.37,2013-06-25 11:10:00,
2013-06-25 04:20:00,55.7,55.4,29.70,SE,139,0.0,0.0,99,0.01,RA,,0.07,WeatherDisplay:10.37,2013-06-25 11:20:00,
2013-06-25 04:30:00,55.7,55.4,29.70,SE,145,0.0,0.0,99,0.00,RA,,0.07,WeatherDisplay:10.37,2013-06-25 11:30:00,
2013-06-25 04:40:00,55.5,55.3,29.70,West,263,0.0,0.0,99,0.00,RA,,0.07,WeatherDisplay:10.37,2013-06-25 11:40:00,
2013-06-25 04:50:00,55.5,55.2,29.70,West,263,0.0,0.0,99,0.00,RA,,0.07,WeatherDisplay:10.37,2013-06-25 11:50:00,
2013-06-25 05:00:00,55.4,55.1,29.70,West,263,0.0,0.0,99,0.00,RA,,0.07,WeatherDisplay:10.37,2013-06-25 12:00:00,
2013-06-25 05:05:00,55.4,55.1,29.70,West,263,0.0,0.0,99,0.00,RA,,0.07,WeatherDisplay:10.37,2013-06-25 12:05:00,
2013-06-25 05:10:00,55.4,55.1,29.69,West,263,0.0,0.0,99,0.00,RA,,0.07,WeatherDisplay:10.37,2013-06-25 12:10:00,
2013-06-25 05:20:00,55.1,54.8,29.69,West,263,0.0,0.0,99,0.00,RA,,0.07,WeatherDisplay:10.37,2013-06-25 12:20:00,
2013-06-25 05:30:00,55.0,54.7,29.69,West,263,0.0,0.0,99,0.00,RA,,0.07,WeatherDisplay:10.37,2013-06-25 12:30:00,
2013-06-25 05:40:00,54.9,54.6,29.69,West,263,0.0,0.0,99,0.00,RA,,0.07,WeatherDisplay:10.37,2013-06-25 12:40:00,
2013-06-25 05:50:00,55.0,55.0,29.69,West,263,0.0,0.0,100,0.00,RA,,0.07,WeatherDisplay:10.37,2013-06-25 12:50:00,
2013-06-25 06:00:00,55.1,55.1,29.69,West,263,0.0,0.0,100,0.00,RA,,0.07,WeatherDisplay:10.37,2013-06-25 13:00:00,
2013-06-25 06:10:00,55.3,55.3,29.69,West,263,0.0,0.0,100,0.00,RA,,0.07,WeatherDisplay:10.37,2013-06-25 13:10:00,
2013-06-25 06:20:00,55.3,55.3,29.68,West,263,0.0,0.0,100,0.00,RA,,0.07,WeatherDisplay:10.37,2013-06-25 13:20:00,
2013-06-25 06:30:00,55.5,55.5,29.69,West,263,0.0,0.0,100,0.00,RA,,0.07,WeatherDisplay:10.37,2013-06-25 13:30:00,
2013-06-25 06:40:00,55.8,55.8,29.69,North,10,0.0,0.0,100,0.00,RA,,0.07,WeatherDisplay:10.37,2013-06-25 13:40:00,
2013-06-25 06:50:00,55.9,55.9,29.68,NE,50,0.0,0.0,100,0.00,RA,,0.07,WeatherDisplay:10.37,2013-06-25 13:50:00,
2013-06-25 07:00:00,56.0,56.0,29.69,NE,50,0.0,0.0,100,0.00,RA,,0.07,WeatherDisplay:10.37,2013-06-25 14:00:00,
2013-06-25 07:05:00,56.1,56.1,29.69,NE,50,0.0,0.0,100,0.00,RA,,0.07,WeatherDisplay:10.37,2013-06-25 14:05:00,
2013-06-25 07:10:00,56.2,56.2,29.69,NE,50,0.0,0.0,100,0.00,RA,,0.07,WeatherDisplay:10.37,2013-06-25 14:10:00,
2013-06-25 07:20:00,56.2,56.2,29.70,ENE,70,0.0,0.0,100,0.01,RA,,0.09,WeatherDisplay:10.37,2013-06-25 14:20:00,
2013-06-25 07:30:00,56.2,56.2,29.70,NW,304,0.0,0.0,100,0.01,RA,,0.10,WeatherDisplay:10.37,2013-06-25 14:30:00,
2013-06-25 07:40:00,56.6,56.6,29.71,NE,54,0.0,0.0,100,0.00,RA,,0.10,WeatherDisplay:10.37,2013-06-25 14:40:00,
2013-06-25 07:50:00,57.0,57.0,29.71,ENE,74,0.0,0.0,100,0.00,RA,,0.10,WeatherDisplay:10.37,2013-06-25 14:50:00,
2013-06-25 08:00:00,57.5,57.5,29.71,ENE,67,0.0,0.0,100,0.00,RA,,0.10,WeatherDisplay:10.37,2013-06-25 15:00:00,
2013-06-25 08:05:00,57.8,57.8,29.71,ENE,67,0.0,0.0,100,0.00,RA,,0.10,WeatherDisplay:10.37,2013-06-25 15:05:00,
2013-06-25 08:10:00,58.1,58.1,29.71,ENE,67,0.0,0.0,100,0.00,RA,,0.10,WeatherDisplay:10.37,2013-06-25 15:10:00,
2013-06-25 08:20:00,58.6,58.6,29.71,SW,217,0.0,0.0,100,0.00,RA,,0.10,WeatherDisplay:10.37,2013-06-25 15:20:00,
2013-06-25 08:30:00,58.8,58.8,29.71,SW,228,0.0,0.0,100,0.00,RA,,0.10,WeatherDisplay:10.37,2013-06-25 15:30:00,
2013-06-25 08:40:00,59.5,59.5,29.72,SW,228,0.0,0.0,100,0.00,RA,,0.10,WeatherDisplay:10.37,2013-06-25 15:40:00,
2013-06-25 08:50:00,60.2,60.2,29.72,SE,133,0.0,0.0,100,0.00,RA,,0.10,WeatherDisplay:10.37,2013-06-25 15:50:00,
2013-06-25 09:00:00,60.6,60.3,29.72,SE,129,0.0,0.0,99,0.00,RA,,0.10,WeatherDisplay:10.37,2013-06-25 16:00:00,
2013-06-25 09:05:00,60.7,60.4,29.72,ESE,119,0.0,0.0,99,0.00,RA,,0.10,WeatherDisplay:10.37,2013-06-25 16:05:00,
2013-06-25 09:10:00,60.6,60.0,29.73,East,95,0.0,0.0,98,0.00,RA,,0.10,WeatherDisplay:10.37,2013-06-25 16:10:00,
2013-06-25 09:20:00,60.9,60.0,29.73,ESE,114,0.0,0.0,97,0.00,RA,,0.10,WeatherDisplay:10.37,2013-06-25 16:20:00,
2013-06-25 09:30:00,61.4,60.3,29.73,ESE,120,0.0,0.0,96,0.00,RA,,0.10,WeatherDisplay:10.37,2013-06-25 16:30:00,
2013-06-25 09:40:00,63.0,61.8,29.73,ESE,110,0.0,0.0,96,0.00,RA,,0.10,WeatherDisplay:10.37,2013-06-25 16:40:00,
2013-06-25 09:50:00,63.1,61.1,29.73,ENE,62,0.0,0.0,93,0.00,RA,,0.10,WeatherDisplay:10.37,2013-06-25 16:50:00,
2013-06-25 10:00:00,63.2,58.3,29.73,ENE,58,0.0,0.0,84,0.00,RA,,0.10,WeatherDisplay:10.37,2013-06-25 17:00:00,
2013-06-25 10:05:00,63.7,60.4,29.73,ENE,65,0.0,0.0,89,0.00,RA,,0.10,WeatherDisplay:10.37,2013-06-25 17:05:00,
2013-06-25 10:10:00,64.0,60.7,29.73,ENE,68,0.0,0.0,89,0.00,RA,,0.10,WeatherDisplay:10.37,2013-06-25 17:10:00,
2013-06-25 10:20:00,65.2,61.3,29.73,ESE,109,0.0,0.0,87,0.00,RA,,0.10,WeatherDisplay:10.37,2013-06-25 17:20:00,
2013-06-25 10:30:00,65.3,59.3,29.73,East,80,0.0,2.0,81,0.00,RA,,0.10,WeatherDisplay:10.37,2013-06-25 17:30:00,
2013-06-25 10:40:00,65.9,59.9,29.73,South,180,0.0,0.0,81,0.00,RA,,0.10,WeatherDisplay:10.37,2013-06-25 17:40:00,
2013-06-25 10:50:00,66.6,59.5,29.73,South,187,0.0,0.0,78,0.00,RA,,0.10,WeatherDisplay:10.37,2013-06-25 17:50:00,
2013-06-25 11:00:00,66.8,58.3,29.73,North,5,0.0,5.0,74,0.00,RA,,0.10,WeatherDisplay:10.37,2013-06-25 18:00:00,
2013-06-25 11:05:00,66.6,59.9,29.73,NNE,33,0.0,4.0,79,0.00,RA,,0.10,WeatherDisplay:10.37,2013-06-25 18:05:00,
2013-06-25 11:10:00,67.0,59.5,29.73,ENE,57,1.0,4.0,77,0.00,RA,,0.10,WeatherDisplay:10.37,2013-06-25 18:10:00,
2013-06-25 11:20:00,67.5,60.4,29.73,ESE,114,0.0,0.0,78,0.00,RA,,0.10,WeatherDisplay:10.37,2013-06-25 18:20:00,
2013-06-25 11:30:00,68.5,59.9,29.73,ENE,73,1.0,6.0,74,0.00,RA,,0.10,WeatherDisplay:10.37,2013-06-25 18:30:00,
2013-06-25 11:40:00,68.4,59.0,29.73,SSE,164,0.0,3.0,72,0.00,RA,,0.10,WeatherDisplay:10.37,2013-06-25 18:40:00,
2013-06-25 11:50:00,69.0,60.0,29.73,WNW,291,2.0,4.0,73,0.00,RA,,0.10,WeatherDisplay:10.37,2013-06-25 18:50:00,
2013-06-25 12:00:00,68.7,58.9,29.73,NE,45,1.0,4.0,71,0.00,RA,,0.10,WeatherDisplay:10.37,2013-06-25 19:00:00,
2013-06-25 12:10:00,68.8,59.4,29.73,ENE,57,1.0,3.0,72,0.00,RA,,0.10,WeatherDisplay:10.37,2013-06-25 19:10:00,
2013-06-25 12:20:00,68.8,57.8,29.73,NE,54,1.0,5.0,68,0.00,RA,,0.10,WeatherDisplay:10.37,2013-06-25 19:20:00,
2013-06-25 12:30:00,68.7,58.5,29.73,ENE,72,2.0,3.0,70,0.00,RA,,0.10,WeatherDisplay:10.37,2013-06-25 19:30:00,
2013-06-25 12:40:00,69.8,59.5,29.73,East,101,1.0,4.0,70,0.00,RA,,0.10,WeatherDisplay:10.37,2013-06-25 19:40:00,
2013-06-25 12:50:00,70.6,59.9,29.73,ESE,117,0.0,2.0,69,0.00,RA,,0.10,WeatherDisplay:10.37,2013-06-25 19:50:00,
2013-06-25 13:00:00,70.6,59.5,29.73,ENE,69,2.0,4.0,68,0.00,RA,,0.10,WeatherDisplay:10.37,2013-06-25 20:00:00,
2013-06-25 13:05:00,70.6,59.1,29.73,ENE,57,1.0,5.0,67,0.00,RA,,0.10,WeatherDisplay:10.37,2013-06-25 20:05:00,
2013-06-25 13:10:00,70.2,58.3,29.73,ENE,57,5.0,7.0,66,0.00,RA,,0.10,WeatherDisplay:10.37,2013-06-25 20:10:00,
2013-06-25 13:20:00,70.5,59.0,29.73,SSE,165,1.0,2.0,67,0.00,RA,,0.10,WeatherDisplay:10.37,2013-06-25 20:20:00,
2013-06-25 13:30:00,70.7,59.7,29.73,North,359,0.0,1.0,68,0.00,RA,,0.10,WeatherDisplay:10.37,2013-06-25 20:30:00,
2013-06-25 13:40:00,70.2,59.5,29.74,South,187,0.0,3.0,69,0.00,RA,,0.10,WeatherDisplay:10.37,2013-06-25 20:40:00,
2013-06-25 13:50:00,69.5,60.8,29.74,SW,218,0.0,2.0,74,0.00,RA,,0.10,WeatherDisplay:10.37,2013-06-25 20:50:00,
2013-06-25 14:00:00,67.2,59.3,29.74,SSW,203,1.0,4.0,76,0.00,RA,,0.10,WeatherDisplay:10.37,2013-06-25 21:00:00,
2013-06-25 14:05:00,66.2,58.8,29.74,SSW,201,1.0,5.0,77,0.01,RA,,0.11,WeatherDisplay:10.37,2013-06-25 21:05:00,
2013-06-25 14:10:00,65.8,60.2,29.74,South,190,0.0,2.0,82,0.00,RA,,0.11,WeatherDisplay:10.37,2013-06-25 21:10:00,
2013-06-25 14:20:00,66.3,59.6,29.74,SSE,152,0.0,3.0,79,0.00,RA,,0.11,WeatherDisplay:10.37,2013-06-25 21:20:00,
2013-06-25 14:30:00,67.5,59.3,29.73,South,183,0.0,5.0,75,0.00,RA,,0.11,WeatherDisplay:10.37,2013-06-25 21:30:00,
2013-06-25 14:40:00,69.6,59.8,29.73,ENE,72,2.0,5.0,71,0.00,RA,,0.11,WeatherDisplay:10.37,2013-06-25 21:40:00,
2013-06-25 14:50:00,71.4,59.0,29.73,ENE,59,2.0,5.0,65,0.00,RA,,0.11,WeatherDisplay:10.37,2013-06-25 21:50:00,
2013-06-25 15:00:00,72.2,58.9,29.73,North,352,2.0,5.0,63,0.00,RA,,0.11,WeatherDisplay:10.37,2013-06-25 22:00:00,
2013-06-25 15:05:00,73.3,60.8,29.73,ESE,102,0.0,1.0,65,0.00,RA,,0.11,WeatherDisplay:10.37,2013-06-25 22:05:00,
2013-06-25 15:10:00,73.4,61.4,29.73,ESE,108,0.0,1.0,66,0.00,RA,,0.11,WeatherDisplay:10.37,2013-06-25 22:10:00,
2013-06-25 15:20:00,72.7,58.5,29.73,WNW,288,1.0,2.0,61,0.00,RA,,0.11,WeatherDisplay:10.37,2013-06-25 22:20:00,
2013-06-25 15:30:00,73.5,59.7,29.72,West,261,0.0,4.0,62,0.00,RA,,0.11,WeatherDisplay:10.37,2013-06-25 22:30:00,
2013-06-25 15:40:00,73.9,56.2,29.72,ESE,112,0.0,4.0,54,0.00,RA,,0.11,WeatherDisplay:10.37,2013-06-25 22:40:00,
2013-06-25 15:50:00,74.2,57.5,29.72,NE,50,2.0,4.0,56,0.00,RA,,0.11,WeatherDisplay:10.37,2013-06-25 22:50:00,
2013-06-25 16:00:00,72.9,57.7,29.71,ENE,66,1.0,4.0,59,0.00,RA,,0.11,WeatherDisplay:10.37,2013-06-25 23:00:00,
2013-06-25 16:05:00,73.0,56.3,29.71,East,90,1.0,3.0,56,0.00,RA,,0.11,WeatherDisplay:10.37,2013-06-25 23:05:00,
2013-06-25 16:10:00,73.1,57.9,29.71,WNW,291,0.0,1.0,59,0.00,RA,,0.11,WeatherDisplay:10.37,2013-06-25 23:10:00,
2013-06-25 16:20:00,72.9,56.3,29.71,East,98,0.0,1.0,56,0.00,RA,,0.11,WeatherDisplay:10.37,2013-06-25 23:20:00,
2013-06-25 16:30:00,72.8,57.7,29.71,NE,53,0.0,0.0,59,0.00,RA,,0.11,WeatherDisplay:10.37,2013-06-25 23:30:00,
2013-06-25 16:40:00,73.7,58.5,29.71,NNE,20,0.0,0.0,59,0.00,RA,,0.11,WeatherDisplay:10.37,2013-06-25 23:40:00,
2013-06-25 16:50:00,73.6,60.7,29.72,NW,309,0.0,0.0,64,0.00,RA,,0.11,WeatherDisplay:10.37,2013-06-25 23:50:00,
2013-06-25 17:00:00,73.0,58.7,29.72,NE,56,0.0,0.0,61,0.00,RA,,0.11,WeatherDisplay:10.37,2013-06-26 00:00:00,
2013-06-25 17:05:00,72.2,57.5,29.72,West,263,0.0,0.0,60,0.00,RA,,0.11,WeatherDisplay:10.37,2013-06-26 00:05:00,
2013-06-25 17:10:00,71.9,58.6,29.72,WSW,244,0.0,0.0,63,0.00,RA,,0.11,WeatherDisplay:10.37,2013-06-26 00:10:00,
2013-06-25 17:20:00,71.1,60.0,29.73,WSW,244,0.0,3.0,68,0.00,RA,,0.11,WeatherDisplay:10.37,2013-06-26 00:20:00,
2013-06-25 17:30:00,69.9,58.8,29.75,WSW,237,5.0,12.0,68,0.00,RA,,0.11,WeatherDisplay:10.37,2013-06-26 00:30:00,
2013-06-25 17:40:00,64.4,58.5,29.77,SSE,155,3.0,5.0,81,0.03,RA,,0.15,WeatherDisplay:10.37,2013-06-26 00:40:00,
2013-06-25 17:50:00,62.0,58.7,29.77,ESE,104,0.0,3.0,89,0.01,RA,,0.18,WeatherDisplay:10.37,2013-06-26 00:50:00,
2013-06-25 18:00:00,61.4,58.4,29.77,SSE,149,0.0,0.0,90,0.00,RA,,0.18,WeatherDisplay:10.37,2013-06-26 01:00:00,
2013-06-25 18:05:00,61.3,58.7,29.77,SE,139,0.0,0.0,91,0.00,RA,,0.18,WeatherDisplay:10.37,2013-06-26 01:05:00,
2013-06-25 18:10:00,61.4,58.7,29.77,SE,134,0.0,0.0,91,0.00,RA,,0.18,WeatherDisplay:10.37,2013-06-26 01:10:00,
2013-06-25 18:20:00,61.5,59.2,29.77,ESE,123,0.0,0.0,92,0.00,RA,,0.18,WeatherDisplay:10.37,2013-06-26 01:20:00,
2013-06-25 18:30:00,61.4,59.4,29.77,NNE,28,0.0,0.0,93,0.00,RA,,0.18,WeatherDisplay:10.37,2013-06-26 01:30:00,
2013-06-25 18:40:00,61.3,59.3,29.77,NE,55,0.0,0.0,93,0.00,RA,,0.18,WeatherDisplay:10.37,2013-06-26 01:40:00,
2013-06-25 18:50:00,61.2,59.2,29.78,West,267,0.0,0.0,93,0.00,RA,,0.18,WeatherDisplay:10.37,2013-06-26 01:50:00,
2013-06-25 19:00:00,61.4,59.4,29.78,ENE,70,0.0,0.0,93,0.00,RA,,0.18,WeatherDisplay:10.37,2013-06-26 02:00:00,
2013-06-25 19:05:00,61.4,59.4,29.78,ENE,73,0.0,0.0,93,0.00,RA,,0.18,WeatherDisplay:10.37,2013-06-26 02:05:00,
2013-06-25 19:10:00,61.4,59.3,29.79,ENE,72,0.0,0.0,93,0.00,RA,,0.18,WeatherDisplay:10.37,2013-06-26 02:10:00,
2013-06-25 19:20:00,61.1,59.4,29.79,ENE,65,0.0,0.0,94,0.00,RA,,0.22,WeatherDisplay:10.37,2013-06-26 02:20:00,
2013-06-25 19:30:00,60.6,58.9,29.79,East,79,0.0,0.0,94,0.00,RA,,0.22,WeatherDisplay:10.37,2013-06-26 02:30:00,
2013-06-25 19:40:00,60.1,58.6,29.79,SE,138,0.0,0.0,95,0.01,RA,,0.24,WeatherDisplay:10.37,2013-06-26 02:40:00,
2013-06-25 19:50:00,59.8,58.4,29.80,SSW,197,0.0,0.0,95,0.00,RA,,0.26,WeatherDisplay:10.37,2013-06-26 02:50:00,
2013-06-25 20:00:00,59.5,58.4,29.80,SE,141,0.0,0.0,96,0.03,RA,,0.31,WeatherDisplay:10.37,2013-06-26 03:00:00,
2013-06-25 20:05:00,59.4,58.3,29.80,SE,134,0.0,0.0,96,0.00,RA,,0.31,WeatherDisplay:10.37,2013-06-26 03:05:00,
2013-06-25 20:10:00,59.3,58.4,29.81,SE,135,0.0,0.0,97,0.00,RA,,0.31,WeatherDisplay:10.37,2013-06-26 03:10:00,
2013-06-25 20:20:00,58.9,58.1,29.81,SE,137,0.0,0.0,97,0.00,RA,,0.31,WeatherDisplay:10.37,2013-06-26 03:20:00,
2013-06-25 20:30:00,58.8,58.0,29.82,SE,136,0.0,0.0,97,0.01,RA,,0.32,WeatherDisplay:10.37,2013-06-26 03:30:00,
2013-06-25 20:40:00,58.8,57.9,29.82,SE,138,0.0,0.0,97,0.00,RA,,0.33,WeatherDisplay:10.37,2013-06-26 03:40:00,
2013-06-25 20:50:00,58.5,57.7,29.82,SE,138,0.0,0.0,97,0.00,RA,,0.33,WeatherDisplay:10.37,2013-06-26 03:50:00,
2013-06-25 21:00:00,58.3,57.7,29.82,SE,139,0.0,0.0,98,0.00,RA,,0.33,WeatherDisplay:10.37,2013-06-26 04:00:00,
2013-06-25 21:05:00,58.4,57.8,29.83,SE,139,0.0,0.0,98,0.00,RA,,0.33,WeatherDisplay:10.37,2013-06-26 04:05:00,
2013-06-25 21:10:00,58.4,57.8,29.84,South,191,0.0,2.0,98,0.00,RA,,0.33,WeatherDisplay:10.37,2013-06-26 04:10:00,
2013-06-25 21:20:00,58.1,57.3,29.85,SW,228,1.0,5.0,97,0.08,RA,,0.52,WeatherDisplay:10.37,2013-06-26 04:20:00,
2013-06-25 21:30:00,57.9,57.1,29.85,SW,233,0.0,0.0,97,0.01,RA,,0.54,WeatherDisplay:10.37,2013-06-26 04:30:00,
2013-06-25 21:35:00,57.9,57.1,29.85,West,259,0.0,0.0,97,0.00,RA,,0.54,WeatherDisplay:10.37,2013-06-26 04:35:00,
2013-06-25 21:40:00,57.9,57.3,29.85,West,266,3.0,5.0,98,0.00,RA,,0.54,WeatherDisplay:10.37,2013-06-26 04:40:00,
2013-06-25 21:45:00,57.9,57.1,29.85,East,97,0.0,2.0,97,0.00,RA,,0.54,WeatherDisplay:10.37,2013-06-26 04:45:00,
2013-06-25 21:50:00,57.8,57.0,29.86,ESE,109,0.0,1.0,97,0.00,RA,,0.54,WeatherDisplay:10.37,2013-06-26 04:50:00,
2013-06-25 22:00:00,57.6,57.1,29.86,SW,216,0.0,0.0,98,0.00,RA,,0.54,WeatherDisplay:10.37,2013-06-26 05:00:00,
2013-06-25 22:05:00,57.6,57.0,29.86,SSW,213,0.0,0.0,98,0.00,RA,,0.54,WeatherDisplay:10.37,2013-06-26 05:05:00,
2013-06-25 22:10:00,57.5,56.9,29.86,South,180,0.0,0.0,98,0.00,RA,,0.54,WeatherDisplay:10.37,2013-06-26 05:10:00,
2013-06-25 22:20:00,57.2,56.6,29.86,SSE,148,0.0,0.0,98,0.00,RA,,0.54,WeatherDisplay:10.37,2013-06-26 05:20:00,
2013-06-25 22:30:00,57.2,56.6,29.87,SE,142,0.0,0.0,98,0.00,RA,,0.54,WeatherDisplay:10.37,2013-06-26 05:30:00,
2013-06-25 22:40:00,56.9,56.3,29.87,SE,141,0.0,0.0,98,0.00,RA,,0.54,WeatherDisplay:10.37,2013-06-26 05:40:00,
2013-06-25 22:50:00,56.6,56.0,29.87,SE,141,0.0,0.0,98,0.00,RA,,0.54,WeatherDisplay:10.37,2013-06-26 05:50:00,
2013-06-25 23:00:00,56.3,55.7,29.87,SE,141,0.0,0.0,98,0.00,RA,,0.54,WeatherDisplay:10.37,2013-06-26 06:00:00,
2013-06-25 23:05:00,56.1,55.5,29.86,SE,141,0.0,0.0,98,0.00,RA,,0.54,WeatherDisplay:10.37,2013-06-26 06:05:00,
2013-06-25 23:10:00,56.0,55.4,29.86,SE,142,0.0,0.0,98,0.00,RA,,0.54,WeatherDisplay:10.37,2013-06-26 06:10:00,
2013-06-25 23:20:00,55.7,55.4,29.87,SE,142,0.0,0.0,99,0.00,RA,,0.54,WeatherDisplay:10.37,2013-06-26 06:20:00,
2013-06-25 23:30:00,55.7,55.4,29.87,SE,141,0.0,0.0,99,0.00,RA,,0.54,WeatherDisplay:10.37,2013-06-26 06:30:00,
2013-06-25 23:40:00,55.9,55.6,29.86,SE,142,0.0,0.0,99,0.00,RA,,0.54,WeatherDisplay:10.37,2013-06-26 06:40:00,
2013-06-25 23:50:00,56.0,55.7,29.86,SE,142,0.0,0.0,99,0.00,RA,,0.54,WeatherDisplay:10.37,2013-06-26 06:50:00,